sensor_id;sensor_type;location;lat;lon;timestamp;P1;durP1;ratioP1;P2;durP2;ratioP2
75655;SDS011;64252;51.094;13.714;2022-10-17T00:01:02;10.88;;;4.32;;
75655;SDS011;64252;51.094;13.714;2022-10-17T00:03:29;7.47;;;4.53;;
75655;SDS011;64252;51.094;13.714;2022-10-17T00:05:55;9.90;;;5.20;;
75655;SDS011;64252;51.094;13.714;2022-10-17T00:08:21;13.43;;;5.78;;
75655;SDS011;64252;51.094;13.714;2022-10-17T00:10:56;7.88;;;4.60;;
75655;SDS011;64252;51.094;13.714;2022-10-17T00:13:24;13.68;;;4.95;;
75655;SDS011;64252;51.094;13.714;2022-10-17T00:15:50;7.88;;;4.97;;
75655;SDS011;64252;51.094;13.714;2022-10-17T00:18:15;8.43;;;4.72;;
75655;SDS011;64252;51.094;13.714;2022-10-17T00:20:41;6.38;;;4.03;;
75655;SDS011;64252;51.094;13.714;2022-10-17T00:23:07;9.25;;;5.45;;
75655;SDS011;64252;51.094;13.714;2022-10-17T00:25:33;10.05;;;5.45;;
75655;SDS011;64252;51.094;13.714;2022-10-17T00:27:59;10.82;;;5.80;;
75655;SDS011;64252;51.094;13.714;2022-10-17T00:30:24;11.07;;;5.40;;
75655;SDS011;64252;51.094;13.714;2022-10-17T00:32:50;7.38;;;4.57;;
75655;SDS011;64252;51.094;13.714;2022-10-17T00:35:15;10.35;;;5.10;;
75655;SDS011;64252;51.094;13.714;2022-10-17T00:37:41;9.10;;;5.13;;
75655;SDS011;64252;51.094;13.714;2022-10-17T00:40:07;10.23;;;4.47;;
75655;SDS011;64252;51.094;13.714;2022-10-17T00:42:33;9.32;;;5.28;;
75655;SDS011;64252;51.094;13.714;2022-10-17T00:45:00;10.27;;;5.63;;
75655;SDS011;64252;51.094;13.714;2022-10-17T00:47:29;9.68;;;5.05;;
75655;SDS011;64252;51.094;13.714;2022-10-17T00:49:55;7.72;;;4.60;;
75655;SDS011;64252;51.094;13.714;2022-10-17T00:52:26;8.90;;;4.63;;
75655;SDS011;64252;51.094;13.714;2022-10-17T00:54:55;7.15;;;3.63;;
75655;SDS011;64252;51.094;13.714;2022-10-17T00:57:40;8.00;;;4.32;;
75655;SDS011;64252;51.094;13.714;2022-10-17T01:00:08;6.93;;;3.60;;
75655;SDS011;64252;51.094;13.714;2022-10-17T01:02:35;9.45;;;4.97;;
75655;SDS011;64252;51.094;13.714;2022-10-17T01:05:00;9.52;;;4.88;;
75655;SDS011;64252;51.094;13.714;2022-10-17T01:07:27;8.07;;;4.40;;
75655;SDS011;64252;51.094;13.714;2022-10-17T01:09:53;7.07;;;3.95;;
75655;SDS011;64252;51.094;13.714;2022-10-17T01:12:36;10.73;;;5.70;;
75655;SDS011;64252;51.094;13.714;2022-10-17T01:15:07;8.45;;;4.95;;
75655;SDS011;64252;51.094;13.714;2022-10-17T01:17:58;9.07;;;4.40;;
75655;SDS011;64252;51.094;13.714;2022-10-17T01:26:00;7.78;;;4.00;;
75655;SDS011;64252;51.094;13.714;2022-10-17T01:31:13;14.35;;;5.28;;
75655;SDS011;64252;51.094;13.714;2022-10-17T01:36:10;10.48;;;4.43;;
75655;SDS011;64252;51.094;13.714;2022-10-17T01:38:39;8.88;;;4.57;;
75655;SDS011;64252;51.094;13.714;2022-10-17T01:44:30;9.15;;;4.63;;
75655;SDS011;64252;51.094;13.714;2022-10-17T01:46:57;10.05;;;4.63;;
75655;SDS011;64252;51.094;13.714;2022-10-17T01:49:27;11.45;;;5.20;;
75655;SDS011;64252;51.094;13.714;2022-10-17T01:52:03;7.35;;;3.75;;
75655;SDS011;64252;51.094;13.714;2022-10-17T01:54:47;11.95;;;4.95;;
75655;SDS011;64252;51.094;13.714;2022-10-17T01:57:23;7.07;;;4.15;;
75655;SDS011;64252;51.094;13.714;2022-10-17T01:59:53;8.75;;;5.05;;
75655;SDS011;64252;51.094;13.714;2022-10-17T02:02:22;11.32;;;4.90;;
75655;SDS011;64252;51.094;13.714;2022-10-17T02:04:49;14.90;;;6.07;;
75655;SDS011;64252;51.094;13.714;2022-10-17T02:07:16;13.55;;;5.55;;
75655;SDS011;64252;51.094;13.714;2022-10-17T02:09:42;9.63;;;4.97;;
75655;SDS011;64252;51.094;13.714;2022-10-17T02:12:21;10.52;;;4.57;;
75655;SDS011;64252;51.094;13.714;2022-10-17T02:17:57;16.05;;;5.22;;
75655;SDS011;64252;51.094;13.714;2022-10-17T02:28:00;11.43;;;5.57;;
75655;SDS011;64252;51.094;13.714;2022-10-17T02:30:39;11.38;;;5.22;;
75655;SDS011;64252;51.094;13.714;2022-10-17T02:33:11;13.77;;;5.60;;
75655;SDS011;64252;51.094;13.714;2022-10-17T02:35:44;12.93;;;5.78;;
75655;SDS011;64252;51.094;13.714;2022-10-17T02:38:14;17.42;;;6.43;;
75655;SDS011;64252;51.094;13.714;2022-10-17T02:40:42;15.82;;;6.20;;
75655;SDS011;64252;51.094;13.714;2022-10-17T02:43:09;19.67;;;6.60;;
75655;SDS011;64252;51.094;13.714;2022-10-17T02:45:35;18.58;;;6.68;;
75655;SDS011;64252;51.094;13.714;2022-10-17T02:48:11;18.25;;;6.43;;
75655;SDS011;64252;51.094;13.714;2022-10-17T02:50:46;17.42;;;7.15;;
75655;SDS011;64252;51.094;13.714;2022-10-17T02:53:28;13.10;;;5.93;;
75655;SDS011;64252;51.094;13.714;2022-10-17T02:56:03;17.80;;;7.38;;
75655;SDS011;64252;51.094;13.714;2022-10-17T02:58:37;22.88;;;8.60;;
75655;SDS011;64252;51.094;13.714;2022-10-17T03:01:04;30.88;;;8.98;;
75655;SDS011;64252;51.094;13.714;2022-10-17T03:03:31;32.40;;;11.02;;
75655;SDS011;64252;51.094;13.714;2022-10-17T03:06:00;34.38;;;9.32;;
75655;SDS011;64252;51.094;13.714;2022-10-17T03:08:26;26.73;;;9.18;;
75655;SDS011;64252;51.094;13.714;2022-10-17T03:10:51;31.08;;;8.43;;
75655;SDS011;64252;51.094;13.714;2022-10-17T03:13:19;27.42;;;9.98;;
75655;SDS011;64252;51.094;13.714;2022-10-17T03:15:45;25.40;;;9.15;;
75655;SDS011;64252;51.094;13.714;2022-10-17T03:18:12;33.03;;;8.82;;
75655;SDS011;64252;51.094;13.714;2022-10-17T03:20:37;34.20;;;10.23;;
75655;SDS011;64252;51.094;13.714;2022-10-17T03:23:03;23.95;;;9.15;;
75655;SDS011;64252;51.094;13.714;2022-10-17T03:25:29;28.35;;;8.82;;
75655;SDS011;64252;51.094;13.714;2022-10-17T03:27:56;32.80;;;9.73;;
75655;SDS011;64252;51.094;13.714;2022-10-17T03:30:24;35.28;;;10.80;;
75655;SDS011;64252;51.094;13.714;2022-10-17T03:32:50;29.20;;;10.40;;
75655;SDS011;64252;51.094;13.714;2022-10-17T03:35:16;45.15;;;14.70;;
75655;SDS011;64252;51.094;13.714;2022-10-17T03:37:45;36.40;;;11.43;;
75655;SDS011;64252;51.094;13.714;2022-10-17T03:40:11;36.72;;;10.98;;
75655;SDS011;64252;51.094;13.714;2022-10-17T03:42:36;34.13;;;10.80;;
75655;SDS011;64252;51.094;13.714;2022-10-17T03:45:02;41.72;;;14.98;;
75655;SDS011;64252;51.094;13.714;2022-10-17T03:47:28;37.47;;;13.18;;
75655;SDS011;64252;51.094;13.714;2022-10-17T03:49:54;38.67;;;12.25;;
75655;SDS011;64252;51.094;13.714;2022-10-17T03:52:20;42.97;;;13.50;;
75655;SDS011;64252;51.094;13.714;2022-10-17T03:54:46;41.58;;;12.90;;
75655;SDS011;64252;51.094;13.714;2022-10-17T03:57:11;43.63;;;12.60;;
75655;SDS011;64252;51.094;13.714;2022-10-17T03:59:37;44.58;;;13.70;;
75655;SDS011;64252;51.094;13.714;2022-10-17T04:02:09;40.33;;;13.02;;
75655;SDS011;64252;51.094;13.714;2022-10-17T04:04:34;38.63;;;12.57;;
75655;SDS011;64252;51.094;13.714;2022-10-17T04:07:02;41.88;;;14.52;;
75655;SDS011;64252;51.094;13.714;2022-10-17T04:09:27;43.15;;;11.32;;
75655;SDS011;64252;51.094;13.714;2022-10-17T04:11:58;43.45;;;13.93;;
75655;SDS011;64252;51.094;13.714;2022-10-17T04:14:24;50.65;;;15.07;;
75655;SDS011;64252;51.094;13.714;2022-10-17T04:16:50;49.05;;;14.70;;
75655;SDS011;64252;51.094;13.714;2022-10-17T04:19:19;53.75;;;15.43;;
75655;SDS011;64252;51.094;13.714;2022-10-17T04:21:45;45.17;;;12.63;;
75655;SDS011;64252;51.094;13.714;2022-10-17T04:24:12;41.42;;;12.57;;
75655;SDS011;64252;51.094;13.714;2022-10-17T04:26:49;47.85;;;13.43;;
75655;SDS011;64252;51.094;13.714;2022-10-17T04:29:16;46.15;;;12.98;;
75655;SDS011;64252;51.094;13.714;2022-10-17T04:31:44;36.03;;;12.95;;
75655;SDS011;64252;51.094;13.714;2022-10-17T04:34:17;43.78;;;13.63;;
75655;SDS011;64252;51.094;13.714;2022-10-17T04:36:43;46.22;;;14.00;;
75655;SDS011;64252;51.094;13.714;2022-10-17T04:39:10;56.78;;;18.15;;
75655;SDS011;64252;51.094;13.714;2022-10-17T04:41:36;57.25;;;16.42;;
75655;SDS011;64252;51.094;13.714;2022-10-17T04:44:03;44.45;;;14.98;;
75655;SDS011;64252;51.094;13.714;2022-10-17T04:46:32;46.22;;;14.27;;
75655;SDS011;64252;51.094;13.714;2022-10-17T04:48:58;51.40;;;15.77;;
75655;SDS011;64252;51.094;13.714;2022-10-17T04:51:24;38.75;;;12.18;;
75655;SDS011;64252;51.094;13.714;2022-10-17T04:54:12;42.30;;;13.48;;
75655;SDS011;64252;51.094;13.714;2022-10-17T05:03:22;42.47;;;14.13;;
75655;SDS011;64252;51.094;13.714;2022-10-17T05:05:47;45.83;;;14.85;;
75655;SDS011;64252;51.094;13.714;2022-10-17T05:08:13;42.83;;;14.07;;
75655;SDS011;64252;51.094;13.714;2022-10-17T05:10:39;63.20;;;16.95;;
75655;SDS011;64252;51.094;13.714;2022-10-17T05:13:07;52.22;;;16.20;;
75655;SDS011;64252;51.094;13.714;2022-10-17T05:15:34;58.33;;;16.33;;
75655;SDS011;64252;51.094;13.714;2022-10-17T05:18:01;62.40;;;17.83;;
75655;SDS011;64252;51.094;13.714;2022-10-17T05:20:28;46.80;;;15.73;;
75655;SDS011;64252;51.094;13.714;2022-10-17T05:22:54;64.03;;;18.42;;
75655;SDS011;64252;51.094;13.714;2022-10-17T05:25:22;81.10;;;21.17;;
75655;SDS011;64252;51.094;13.714;2022-10-17T05:27:49;66.90;;;18.15;;
75655;SDS011;64252;51.094;13.714;2022-10-17T05:30:16;63.92;;;17.60;;
75655;SDS011;64252;51.094;13.714;2022-10-17T05:32:42;47.05;;;15.32;;
75655;SDS011;64252;51.094;13.714;2022-10-17T05:35:08;53.15;;;16.15;;
75655;SDS011;64252;51.094;13.714;2022-10-17T05:37:35;66.82;;;19.38;;
75655;SDS011;64252;51.094;13.714;2022-10-17T05:40:01;52.28;;;15.57;;
75655;SDS011;64252;51.094;13.714;2022-10-17T05:42:29;60.97;;;17.75;;
75655;SDS011;64252;51.094;13.714;2022-10-17T05:44:58;62.60;;;18.65;;
75655;SDS011;64252;51.094;13.714;2022-10-17T05:47:24;59.85;;;16.48;;
75655;SDS011;64252;51.094;13.714;2022-10-17T05:49:50;55.63;;;17.67;;
75655;SDS011;64252;51.094;13.714;2022-10-17T05:52:16;61.63;;;16.75;;
75655;SDS011;64252;51.094;13.714;2022-10-17T05:54:53;59.15;;;18.08;;
75655;SDS011;64252;51.094;13.714;2022-10-17T05:57:19;63.38;;;19.27;;
75655;SDS011;64252;51.094;13.714;2022-10-17T05:59:45;55.83;;;19.73;;
75655;SDS011;64252;51.094;13.714;2022-10-17T06:02:14;58.83;;;18.63;;
75655;SDS011;64252;51.094;13.714;2022-10-17T06:04:41;56.05;;;19.23;;
75655;SDS011;64252;51.094;13.714;2022-10-17T06:07:13;55.58;;;18.73;;
75655;SDS011;64252;51.094;13.714;2022-10-17T06:09:41;51.42;;;18.63;;
75655;SDS011;64252;51.094;13.714;2022-10-17T06:12:07;51.83;;;18.88;;
75655;SDS011;64252;51.094;13.714;2022-10-17T06:14:33;47.22;;;16.35;;
75655;SDS011;64252;51.094;13.714;2022-10-17T06:17:01;43.72;;;17.25;;
75655;SDS011;64252;51.094;13.714;2022-10-17T06:19:26;43.20;;;17.80;;
75655;SDS011;64252;51.094;13.714;2022-10-17T06:21:52;47.38;;;17.67;;
75655;SDS011;64252;51.094;13.714;2022-10-17T06:24:20;45.75;;;17.17;;
75655;SDS011;64252;51.094;13.714;2022-10-17T06:29:18;46.53;;;19.55;;
75655;SDS011;64252;51.094;13.714;2022-10-17T06:31:49;41.05;;;17.17;;
75655;SDS011;64252;51.094;13.714;2022-10-17T06:34:15;52.92;;;20.48;;
75655;SDS011;64252;51.094;13.714;2022-10-17T06:36:40;52.80;;;19.98;;
75655;SDS011;64252;51.094;13.714;2022-10-17T06:39:07;57.67;;;22.48;;
75655;SDS011;64252;51.094;13.714;2022-10-17T06:41:41;54.10;;;20.23;;
75655;SDS011;64252;51.094;13.714;2022-10-17T06:44:08;65.22;;;24.65;;
75655;SDS011;64252;51.094;13.714;2022-10-17T06:46:49;67.68;;;21.73;;
75655;SDS011;64252;51.094;13.714;2022-10-17T06:49:16;56.63;;;20.38;;
75655;SDS011;64252;51.094;13.714;2022-10-17T06:51:57;69.47;;;25.67;;
75655;SDS011;64252;51.094;13.714;2022-10-17T06:54:36;87.20;;;29.63;;
75655;SDS011;64252;51.094;13.714;2022-10-17T06:57:20;76.25;;;25.00;;
75655;SDS011;64252;51.094;13.714;2022-10-17T07:00:04;92.40;;;31.45;;
75655;SDS011;64252;51.094;13.714;2022-10-17T07:02:38;91.88;;;31.70;;
75655;SDS011;64252;51.094;13.714;2022-10-17T07:05:03;75.50;;;29.98;;
75655;SDS011;64252;51.094;13.714;2022-10-17T07:07:30;61.88;;;28.98;;
75655;SDS011;64252;51.094;13.714;2022-10-17T07:09:56;62.13;;;28.30;;
75655;SDS011;64252;51.094;13.714;2022-10-17T07:12:23;51.47;;;24.67;;
75655;SDS011;64252;51.094;13.714;2022-10-17T07:14:49;54.70;;;25.27;;
75655;SDS011;64252;51.094;13.714;2022-10-17T07:17:17;48.90;;;24.17;;
75655;SDS011;64252;51.094;13.714;2022-10-17T07:22:10;46.97;;;24.02;;
75655;SDS011;64252;51.094;13.714;2022-10-17T07:24:38;44.03;;;24.60;;
75655;SDS011;64252;51.094;13.714;2022-10-17T07:29:39;43.03;;;21.60;;
75655;SDS011;64252;51.094;13.714;2022-10-17T07:32:13;38.55;;;22.67;;
75655;SDS011;64252;51.094;13.714;2022-10-17T07:34:38;38.90;;;22.27;;
75655;SDS011;64252;51.094;13.714;2022-10-17T07:37:05;36.50;;;21.25;;
75655;SDS011;64252;51.094;13.714;2022-10-17T07:39:31;35.72;;;20.35;;
75655;SDS011;64252;51.094;13.714;2022-10-17T07:41:57;37.08;;;20.98;;
75655;SDS011;64252;51.094;13.714;2022-10-17T07:44:23;34.63;;;20.55;;
75655;SDS011;64252;51.094;13.714;2022-10-17T07:46:50;32.38;;;19.05;;
75655;SDS011;64252;51.094;13.714;2022-10-17T07:49:17;34.03;;;19.45;;
75655;SDS011;64252;51.094;13.714;2022-10-17T07:51:42;30.45;;;17.52;;
75655;SDS011;64252;51.094;13.714;2022-10-17T07:54:08;29.08;;;18.30;;
75655;SDS011;64252;51.094;13.714;2022-10-17T07:56:34;30.60;;;17.92;;
75655;SDS011;64252;51.094;13.714;2022-10-17T07:59:00;29.83;;;18.27;;
75655;SDS011;64252;51.094;13.714;2022-10-17T08:01:25;31.98;;;18.20;;
75655;SDS011;64252;51.094;13.714;2022-10-17T08:03:53;30.77;;;18.95;;
75655;SDS011;64252;51.094;13.714;2022-10-17T08:06:18;26.90;;;16.73;;
75655;SDS011;64252;51.094;13.714;2022-10-17T08:08:44;30.00;;;17.08;;
75655;SDS011;64252;51.094;13.714;2022-10-17T08:11:10;29.48;;;17.55;;
75655;SDS011;64252;51.094;13.714;2022-10-17T08:13:37;32.60;;;18.23;;
75655;SDS011;64252;51.094;13.714;2022-10-17T08:16:05;28.95;;;16.27;;
75655;SDS011;64252;51.094;13.714;2022-10-17T08:18:33;24.92;;;15.98;;
75655;SDS011;64252;51.094;13.714;2022-10-17T08:21:00;27.33;;;16.08;;
75655;SDS011;64252;51.094;13.714;2022-10-17T08:23:27;29.17;;;17.77;;
75655;SDS011;64252;51.094;13.714;2022-10-17T08:25:52;25.90;;;15.25;;
75655;SDS011;64252;51.094;13.714;2022-10-17T08:28:18;26.05;;;16.95;;
75655;SDS011;64252;51.094;13.714;2022-10-17T08:30:44;24.92;;;16.38;;
75655;SDS011;64252;51.094;13.714;2022-10-17T08:33:10;27.90;;;16.75;;
75655;SDS011;64252;51.094;13.714;2022-10-17T08:35:35;23.27;;;15.13;;
75655;SDS011;64252;51.094;13.714;2022-10-17T08:38:01;25.42;;;16.13;;
75655;SDS011;64252;51.094;13.714;2022-10-17T08:40:27;24.73;;;15.65;;
75655;SDS011;64252;51.094;13.714;2022-10-17T08:45:56;22.92;;;14.23;;
75655;SDS011;64252;51.094;13.714;2022-10-17T08:48:25;26.02;;;17.15;;
75655;SDS011;64252;51.094;13.714;2022-10-17T08:50:54;24.05;;;15.38;;
75655;SDS011;64252;51.094;13.714;2022-10-17T08:53:32;25.55;;;16.40;;
75655;SDS011;64252;51.094;13.714;2022-10-17T08:56:04;25.48;;;15.30;;
75655;SDS011;64252;51.094;13.714;2022-10-17T08:58:37;24.08;;;15.20;;
75655;SDS011;64252;51.094;13.714;2022-10-17T09:17:06;26.13;;;16.00;;
75655;SDS011;64252;51.094;13.714;2022-10-17T09:19:36;24.58;;;15.68;;
75655;SDS011;64252;51.094;13.714;2022-10-17T09:22:12;23.85;;;14.77;;
75655;SDS011;64252;51.094;13.714;2022-10-17T09:24:46;24.50;;;16.02;;
75655;SDS011;64252;51.094;13.714;2022-10-17T09:32:53;27.52;;;15.15;;
75655;SDS011;64252;51.094;13.714;2022-10-17T09:35:19;24.80;;;16.05;;
75655;SDS011;64252;51.094;13.714;2022-10-17T09:37:46;23.33;;;15.25;;
75655;SDS011;64252;51.094;13.714;2022-10-17T09:40:25;25.73;;;16.67;;
75655;SDS011;64252;51.094;13.714;2022-10-17T09:42:55;25.45;;;15.77;;
75655;SDS011;64252;51.094;13.714;2022-10-17T09:45:22;21.58;;;14.38;;
75655;SDS011;64252;51.094;13.714;2022-10-17T09:48:00;27.42;;;16.25;;
75655;SDS011;64252;51.094;13.714;2022-10-17T09:50:32;27.88;;;16.25;;
75655;SDS011;64252;51.094;13.714;2022-10-17T09:53:02;23.48;;;15.38;;
75655;SDS011;64252;51.094;13.714;2022-10-17T09:58:09;23.27;;;13.88;;
75655;SDS011;64252;51.094;13.714;2022-10-17T10:00:37;22.27;;;15.43;;
75655;SDS011;64252;51.094;13.714;2022-10-17T10:03:08;25.80;;;17.05;;
75655;SDS011;64252;51.094;13.714;2022-10-17T10:05:37;24.75;;;15.40;;
75655;SDS011;64252;51.094;13.714;2022-10-17T10:08:04;22.23;;;14.73;;
75655;SDS011;64252;51.094;13.714;2022-10-17T10:10:37;21.60;;;14.77;;
75655;SDS011;64252;51.094;13.714;2022-10-17T10:15:40;25.17;;;15.77;;
75655;SDS011;64252;51.094;13.714;2022-10-17T10:21:14;21.45;;;13.60;;
75655;SDS011;64252;51.094;13.714;2022-10-17T10:23:47;21.65;;;14.75;;
75655;SDS011;64252;51.094;13.714;2022-10-17T10:26:49;21.45;;;14.35;;
75655;SDS011;64252;51.094;13.714;2022-10-17T10:29:30;21.83;;;14.20;;
75655;SDS011;64252;51.094;13.714;2022-10-17T10:32:33;23.65;;;15.07;;
75655;SDS011;64252;51.094;13.714;2022-10-17T10:37:52;22.52;;;13.30;;
75655;SDS011;64252;51.094;13.714;2022-10-17T10:42:51;19.10;;;12.90;;
75655;SDS011;64252;51.094;13.714;2022-10-17T10:47:53;20.73;;;13.55;;
75655;SDS011;64252;51.094;13.714;2022-10-17T10:50:41;19.30;;;12.75;;
75655;SDS011;64252;51.094;13.714;2022-10-17T10:59:04;21.50;;;13.13;;
75655;SDS011;64252;51.094;13.714;2022-10-17T11:07:11;19.08;;;12.07;;
75655;SDS011;64252;51.094;13.714;2022-10-17T11:14:50;19.10;;;13.52;;
75655;SDS011;64252;51.094;13.714;2022-10-17T11:17:24;18.08;;;10.95;;
75655;SDS011;64252;51.094;13.714;2022-10-17T11:20:02;16.77;;;11.65;;
75655;SDS011;64252;51.094;13.714;2022-10-17T11:22:54;19.52;;;12.27;;
75655;SDS011;64252;51.094;13.714;2022-10-17T11:25:33;19.52;;;12.07;;
75655;SDS011;64252;51.094;13.714;2022-10-17T11:28:01;19.42;;;12.02;;
75655;SDS011;64252;51.094;13.714;2022-10-17T11:34:18;18.73;;;12.45;;
75655;SDS011;64252;51.094;13.714;2022-10-17T11:36:49;19.33;;;13.15;;
75655;SDS011;64252;51.094;13.714;2022-10-17T11:39:25;19.25;;;12.18;;
75655;SDS011;64252;51.094;13.714;2022-10-17T11:41:56;19.50;;;12.18;;
75655;SDS011;64252;51.094;13.714;2022-10-17T11:44:38;18.55;;;11.50;;
75655;SDS011;64252;51.094;13.714;2022-10-17T11:50:44;18.83;;;12.35;;
75655;SDS011;64252;51.094;13.714;2022-10-17T11:56:02;17.73;;;12.73;;
75655;SDS011;64252;51.094;13.714;2022-10-17T11:58:31;17.60;;;11.38;;
75655;SDS011;64252;51.094;13.714;2022-10-17T12:01:30;18.77;;;12.10;;
75655;SDS011;64252;51.094;13.714;2022-10-17T12:07:18;15.05;;;10.52;;
75655;SDS011;64252;51.094;13.714;2022-10-17T12:10:15;18.45;;;12.77;;
75655;SDS011;64252;51.094;13.714;2022-10-17T12:12:51;17.60;;;11.85;;
75655;SDS011;64252;51.094;13.714;2022-10-17T12:17:58;17.00;;;11.18;;
75655;SDS011;64252;51.094;13.714;2022-10-17T12:20:28;15.18;;;10.52;;
75655;SDS011;64252;51.094;13.714;2022-10-17T12:25:35;18.58;;;9.65;;
75655;SDS011;64252;51.094;13.714;2022-10-17T12:30:35;13.43;;;8.80;;
75655;SDS011;64252;51.094;13.714;2022-10-17T12:35:48;14.32;;;9.65;;
75655;SDS011;64252;51.094;13.714;2022-10-17T12:45:49;17.02;;;10.45;;
75655;SDS011;64252;51.094;13.714;2022-10-17T12:50:59;16.67;;;10.93;;
75655;SDS011;64252;51.094;13.714;2022-10-17T12:59:05;17.20;;;11.13;;
75655;SDS011;64252;51.094;13.714;2022-10-17T13:01:34;17.70;;;10.85;;
75655;SDS011;64252;51.094;13.714;2022-10-17T13:04:08;15.98;;;10.15;;
75655;SDS011;64252;51.094;13.714;2022-10-17T13:06:35;15.15;;;11.00;;
75655;SDS011;64252;51.094;13.714;2022-10-17T13:09:14;15.05;;;10.40;;
75655;SDS011;64252;51.094;13.714;2022-10-17T13:11:47;15.35;;;10.30;;
75655;SDS011;64252;51.094;13.714;2022-10-17T13:14:15;16.38;;;11.35;;
75655;SDS011;64252;51.094;13.714;2022-10-17T13:19:26;15.80;;;10.80;;
75655;SDS011;64252;51.094;13.714;2022-10-17T13:21:58;16.80;;;11.65;;
75655;SDS011;64252;51.094;13.714;2022-10-17T13:26:55;17.85;;;12.05;;
75655;SDS011;64252;51.094;13.714;2022-10-17T13:29:21;17.67;;;12.35;;
75655;SDS011;64252;51.094;13.714;2022-10-17T13:31:53;16.48;;;10.55;;
75655;SDS011;64252;51.094;13.714;2022-10-17T13:34:23;18.02;;;12.30;;
75655;SDS011;64252;51.094;13.714;2022-10-17T13:36:51;18.85;;;12.18;;
75655;SDS011;64252;51.094;13.714;2022-10-17T13:39:23;22.67;;;12.38;;
75655;SDS011;64252;51.094;13.714;2022-10-17T13:41:51;18.45;;;11.88;;
75655;SDS011;64252;51.094;13.714;2022-10-17T13:44:20;17.50;;;11.52;;
75655;SDS011;64252;51.094;13.714;2022-10-17T13:46:48;21.17;;;12.50;;
75655;SDS011;64252;51.094;13.714;2022-10-17T13:51:43;21.70;;;13.38;;
75655;SDS011;64252;51.094;13.714;2022-10-17T13:54:46;24.00;;;13.20;;
75655;SDS011;64252;51.094;13.714;2022-10-17T13:57:19;20.88;;;12.73;;
75655;SDS011;64252;51.094;13.714;2022-10-17T13:59:49;21.90;;;13.55;;
75655;SDS011;64252;51.094;13.714;2022-10-17T14:02:22;20.08;;;12.32;;
75655;SDS011;64252;51.094;13.714;2022-10-17T14:07:39;19.50;;;11.80;;
75655;SDS011;64252;51.094;13.714;2022-10-17T14:10:21;18.15;;;11.23;;
75655;SDS011;64252;51.094;13.714;2022-10-17T14:12:52;20.70;;;12.73;;
75655;SDS011;64252;51.094;13.714;2022-10-17T14:15:19;17.90;;;11.82;;
75655;SDS011;64252;51.094;13.714;2022-10-17T14:17:55;17.65;;;11.63;;
75655;SDS011;64252;51.094;13.714;2022-10-17T14:20:23;19.17;;;12.35;;
75655;SDS011;64252;51.094;13.714;2022-10-17T14:22:49;20.63;;;13.77;;
75655;SDS011;64252;51.094;13.714;2022-10-17T14:25:31;23.17;;;13.55;;
75655;SDS011;64252;51.094;13.714;2022-10-17T14:30:33;20.80;;;13.23;;
75655;SDS011;64252;51.094;13.714;2022-10-17T14:33:01;22.92;;;13.30;;
75655;SDS011;64252;51.094;13.714;2022-10-17T14:35:28;21.00;;;12.43;;
75655;SDS011;64252;51.094;13.714;2022-10-17T14:37:59;18.23;;;12.40;;
75655;SDS011;64252;51.094;13.714;2022-10-17T14:40:27;17.05;;;12.70;;
75655;SDS011;64252;51.094;13.714;2022-10-17T14:42:54;21.10;;;13.35;;
75655;SDS011;64252;51.094;13.714;2022-10-17T14:45:24;22.55;;;13.55;;
75655;SDS011;64252;51.094;13.714;2022-10-17T14:47:54;21.20;;;13.85;;
75655;SDS011;64252;51.094;13.714;2022-10-17T14:50:25;21.33;;;12.45;;
75655;SDS011;64252;51.094;13.714;2022-10-17T14:53:00;18.10;;;12.52;;
75655;SDS011;64252;51.094;13.714;2022-10-17T14:55:55;21.05;;;14.55;;
75655;SDS011;64252;51.094;13.714;2022-10-17T14:58:30;20.98;;;12.90;;
75655;SDS011;64252;51.094;13.714;2022-10-17T15:00:57;23.60;;;13.60;;
75655;SDS011;64252;51.094;13.714;2022-10-17T15:03:24;19.08;;;13.38;;
75655;SDS011;64252;51.094;13.714;2022-10-17T15:05:50;19.27;;;12.13;;
75655;SDS011;64252;51.094;13.714;2022-10-17T15:08:17;21.50;;;13.65;;
75655;SDS011;64252;51.094;13.714;2022-10-17T15:10:45;21.15;;;14.30;;
75655;SDS011;64252;51.094;13.714;2022-10-17T15:13:12;20.35;;;12.85;;
75655;SDS011;64252;51.094;13.714;2022-10-17T15:15:38;25.50;;;14.73;;
75655;SDS011;64252;51.094;13.714;2022-10-17T15:18:05;23.90;;;14.38;;
75655;SDS011;64252;51.094;13.714;2022-10-17T15:20:33;25.85;;;15.45;;
75655;SDS011;64252;51.094;13.714;2022-10-17T15:22:59;24.35;;;14.82;;
75655;SDS011;64252;51.094;13.714;2022-10-17T15:25:26;21.33;;;14.65;;
75655;SDS011;64252;51.094;13.714;2022-10-17T15:27:53;19.77;;;13.25;;
75655;SDS011;64252;51.094;13.714;2022-10-17T15:30:23;21.25;;;14.50;;
75655;SDS011;64252;51.094;13.714;2022-10-17T15:32:54;23.48;;;14.93;;
75655;SDS011;64252;51.094;13.714;2022-10-17T15:35:20;24.80;;;14.90;;
75655;SDS011;64252;51.094;13.714;2022-10-17T15:37:47;19.05;;;12.32;;
75655;SDS011;64252;51.094;13.714;2022-10-17T15:40:14;26.77;;;15.07;;
75655;SDS011;64252;51.094;13.714;2022-10-17T15:42:41;23.77;;;14.50;;
75655;SDS011;64252;51.094;13.714;2022-10-17T15:45:08;23.30;;;13.43;;
75655;SDS011;64252;51.094;13.714;2022-10-17T15:47:40;23.50;;;15.13;;
75655;SDS011;64252;51.094;13.714;2022-10-17T15:50:09;24.27;;;14.50;;
75655;SDS011;64252;51.094;13.714;2022-10-17T15:52:37;19.67;;;12.80;;
75655;SDS011;64252;51.094;13.714;2022-10-17T15:55:03;30.70;;;16.75;;
75655;SDS011;64252;51.094;13.714;2022-10-17T15:57:30;24.77;;;16.00;;
75655;SDS011;64252;51.094;13.714;2022-10-17T16:00:00;23.83;;;15.13;;
75655;SDS011;64252;51.094;13.714;2022-10-17T16:02:34;24.67;;;14.60;;
75655;SDS011;64252;51.094;13.714;2022-10-17T16:05:00;28.02;;;15.85;;
75655;SDS011;64252;51.094;13.714;2022-10-17T16:07:26;27.38;;;16.08;;
75655;SDS011;64252;51.094;13.714;2022-10-17T16:09:51;27.30;;;15.30;;
75655;SDS011;64252;51.094;13.714;2022-10-17T16:12:17;25.50;;;15.80;;
75655;SDS011;64252;51.094;13.714;2022-10-17T16:14:50;25.90;;;15.80;;
75655;SDS011;64252;51.094;13.714;2022-10-17T16:17:15;25.08;;;14.90;;
75655;SDS011;64252;51.094;13.714;2022-10-17T16:19:46;27.08;;;15.70;;
75655;SDS011;64252;51.094;13.714;2022-10-17T16:22:33;23.10;;;14.02;;
75655;SDS011;64252;51.094;13.714;2022-10-17T16:25:21;24.20;;;14.27;;
75655;SDS011;64252;51.094;13.714;2022-10-17T16:27:55;20.75;;;13.60;;
75655;SDS011;64252;51.094;13.714;2022-10-17T16:30:27;24.20;;;14.93;;
75655;SDS011;64252;51.094;13.714;2022-10-17T16:33:03;23.42;;;15.85;;
75655;SDS011;64252;51.094;13.714;2022-10-17T16:35:38;22.95;;;15.23;;
75655;SDS011;64252;51.094;13.714;2022-10-17T16:38:08;24.10;;;14.30;;
75655;SDS011;64252;51.094;13.714;2022-10-17T16:40:35;25.25;;;14.27;;
75655;SDS011;64252;51.094;13.714;2022-10-17T16:43:02;24.40;;;15.20;;
75655;SDS011;64252;51.094;13.714;2022-10-17T16:45:28;24.88;;;15.23;;
75655;SDS011;64252;51.094;13.714;2022-10-17T16:47:54;30.15;;;17.00;;
75655;SDS011;64252;51.094;13.714;2022-10-17T16:50:20;23.38;;;15.43;;
75655;SDS011;64252;51.094;13.714;2022-10-17T16:52:46;29.95;;;14.38;;
75655;SDS011;64252;51.094;13.714;2022-10-17T16:55:12;23.90;;;15.07;;
75655;SDS011;64252;51.094;13.714;2022-10-17T16:57:38;25.38;;;15.40;;